Time;durP1;ratioP1;P1;durP2;ratioP2;P2;SDS_P1;SDS_P2;PMS_P1;PMS_P2;Temp;Humidity;BMP_temperature;BMP_pressure;BME280_temperature;BME280_humidity;BME280_pressure;Samples;Min_cycle;Max_cycle;Signal;HPM_P1;HPM_P2
2021/10/14 00:01:03;;;;;;;8.23;4.43;;;7.40;99.90;;;;;;5018842;28;20169;-81
2021/10/14 00:03:30;;;;;;;7.33;6.27;;;7.50;99.90;;;;;;5018133;28;20439;-81
2021/10/14 00:05:56;;;;;;;5.93;5.10;;;7.40;99.90;;;;;;5019176;28;20397;-82
2021/10/14 00:08:21;;;;;;;5.83;4.80;;;7.30;99.90;;;;;;5019714;28;20367;-82
2021/10/14 00:10:48;;;;;;;7.87;5.20;;;7.30;99.90;;;;;;5020026;28;20161;-80
2021/10/14 00:13:13;;;;;;;5.60;4.97;;;7.30;99.90;;;;;;5023716;28;20185;-82
2021/10/14 00:15:40;;;;;;;7.20;5.47;;;7.40;99.90;;;;;;5025121;28;20404;-81
2021/10/14 00:18:06;;;;;;;9.90;5.67;;;7.30;99.90;;;;;;5019645;28;20181;-80
2021/10/14 00:20:32;;;;;;;5.70;4.83;;;7.30;99.90;;;;;;5018381;28;20426;-81
2021/10/14 00:22:58;;;;;;;6.10;5.47;;;7.30;99.90;;;;;;5019417;28;20535;-81
2021/10/14 00:25:24;;;;;;;6.67;5.57;;;7.30;99.90;;;;;;5019299;28;20249;-81
2021/10/14 00:27:50;;;;;;;8.00;5.70;;;7.40;99.90;;;;;;5019453;28;20586;-81
2021/10/14 00:30:16;;;;;;;7.57;5.33;;;7.30;99.90;;;;;;5019151;28;20481;-82
2021/10/14 00:32:42;;;;;;;8.70;4.70;;;7.30;99.90;;;;;;5019131;28;20452;-82
2021/10/14 00:35:08;;;;;;;8.40;6.33;;;7.30;99.90;;;;;;5019092;28;20392;-83
2021/10/14 00:37:34;;;;;;;7.03;6.37;;;7.40;99.90;;;;;;5019685;28;20229;-82
2021/10/14 00:40:00;;;;;;;6.60;5.90;;;7.40;99.90;;;;;;5019325;28;20427;-83
2021/10/14 00:42:26;;;;;;;9.83;6.23;;;7.40;99.90;;;;;;5018610;28;20204;-82
2021/10/14 00:44:54;;;;;;;7.27;5.07;;;7.40;99.90;;;;;;5019999;28;20189;-82
2021/10/14 00:47:24;;;;;;;5.63;4.47;;;7.40;99.90;;;;;;5019674;28;20248;-82
2021/10/14 00:49:51;;;;;;;6.57;4.87;;;7.40;99.90;;;;;;5031361;28;20409;-80
2021/10/14 00:52:17;;;;;;;9.10;5.30;;;7.50;99.90;;;;;;5037494;28;20401;-82
2021/10/14 00:54:45;;;;;;;6.13;4.27;;;7.40;99.90;;;;;;5038068;28;20560;-82
2021/10/14 00:57:12;;;;;;;11.57;5.77;;;7.50;99.90;;;;;;5036791;28;20181;-80
2021/10/14 00:59:39;;;;;;;5.90;5.03;;;7.40;99.90;;;;;;5017490;28;20396;-81
2021/10/14 01:02:05;;;;;;;5.70;5.20;;;7.50;99.90;;;;;;5018804;28;20453;-81
2021/10/14 01:04:32;;;;;;;7.40;6.30;;;7.60;99.90;;;;;;5017050;28;20440;-81
2021/10/14 01:06:59;;;;;;;9.33;5.33;;;7.60;99.90;;;;;;5018154;28;20404;-81
2021/10/14 01:09:25;;;;;;;6.10;5.50;;;7.50;99.90;;;;;;5018610;28;20378;-82
2021/10/14 01:11:52;;;;;;;5.63;4.27;;;7.60;99.90;;;;;;5018089;28;20927;-81
2021/10/14 01:14:18;;;;;;;10.90;5.47;;;7.60;99.90;;;;;;5018579;28;20408;-81
2021/10/14 01:16:46;;;;;;;5.80;5.30;;;7.50;99.90;;;;;;5018566;28;20396;-81
2021/10/14 01:19:14;;;;;;;6.20;4.10;;;7.40;99.90;;;;;;5018451;28;20949;-81
2021/10/14 01:21:41;;;;;;;5.27;4.63;;;7.40;99.90;;;;;;5016883;28;20432;-81
2021/10/14 01:24:08;;;;;;;7.07;5.97;;;7.30;99.90;;;;;;5016942;28;20436;-81
2021/10/14 01:26:35;;;;;;;6.10;5.50;;;7.40;99.90;;;;;;5018838;28;20424;-82
2021/10/14 01:29:01;;;;;;;9.90;5.30;;;7.40;99.90;;;;;;5018285;28;20464;-81
2021/10/14 01:31:28;;;;;;;9.07;5.37;;;7.50;99.90;;;;;;5018591;28;20400;-81
2021/10/14 01:33:55;;;;;;;8.50;5.97;;;7.50;99.90;;;;;;5018936;28;20404;-81
2021/10/14 01:36:23;;;;;;;7.70;5.47;;;7.50;99.90;;;;;;5017645;28;20400;-82
2021/10/14 01:38:50;;;;;;;12.70;5.90;;;7.50;99.90;;;;;;5018562;28;20873;-81
2021/10/14 01:41:16;;;;;;;8.60;5.60;;;7.60;99.90;;;;;;5017094;28;20162;-81
2021/10/14 01:43:42;;;;;;;7.27;6.20;;;7.60;99.90;;;;;;5018026;28;20948;-81
2021/10/14 01:46:08;;;;;;;10.63;5.70;;;7.50;99.90;;;;;;5018421;28;20411;-82
2021/10/14 01:48:34;;;;;;;16.23;5.10;;;7.50;99.90;;;;;;5017369;28;20420;-82
2021/10/14 01:51:01;;;;;;;6.27;5.30;;;7.50;99.90;;;;;;5017914;28;20396;-81
2021/10/14 01:53:27;;;;;;;13.50;5.20;;;7.50;99.90;;;;;;5018753;28;20809;-81
2021/10/14 01:55:53;;;;;;;7.23;4.30;;;7.60;99.90;;;;;;5018411;28;20412;-82
2021/10/14 01:58:20;;;;;;;6.60;4.20;;;7.60;99.90;;;;;;5018747;28;20409;-82
2021/10/14 02:00:49;;;;;;;9.40;6.53;;;7.60;99.90;;;;;;5003421;28;20763;-79
2021/10/14 02:03:15;;;;;;;8.37;5.73;;;7.50;99.90;;;;;;5024216;28;20448;-79
2021/10/14 02:05:42;;;;;;;7.43;5.63;;;7.60;99.90;;;;;;5024949;28;20450;-79
2021/10/14 02:08:07;;;;;;;13.70;6.37;;;7.60;99.90;;;;;;5022458;28;20397;-80
2021/10/14 02:10:33;;;;;;;13.07;6.43;;;7.60;99.90;;;;;;5018581;28;20401;-82
2021/10/14 02:13:00;;;;;;;6.20;5.60;;;7.60;99.90;;;;;;5017367;28;20215;-82
2021/10/14 02:15:26;;;;;;;8.90;5.23;;;7.70;99.90;;;;;;5018304;28;20619;-82
2021/10/14 02:17:52;;;;;;;6.60;5.30;;;7.80;99.90;;;;;;5017078;28;20397;-81
2021/10/14 02:20:18;;;;;;;6.67;5.97;;;7.70;99.90;;;;;;5018297;28;20412;-81
2021/10/14 02:22:44;;;;;;;6.27;5.67;;;7.70;99.90;;;;;;5017477;28;20452;-81
2021/10/14 02:25:12;;;;;;;7.23;5.67;;;7.50;99.90;;;;;;5017974;28;20393;-81
2021/10/14 02:27:38;;;;;;;10.40;4.90;;;7.70;99.90;;;;;;5019148;28;20400;-81
2021/10/14 02:30:05;;;;;;;10.43;6.23;;;7.80;99.90;;;;;;5022144;28;20725;-81
2021/10/14 02:32:31;;;;;;;9.27;6.40;;;7.80;99.90;;;;;;5021263;28;20241;-82
2021/10/14 02:34:57;;;;;;;6.03;5.43;;;7.60;99.90;;;;;;5021671;28;20430;-81
2021/10/14 02:37:25;;;;;;;6.90;5.73;;;7.60;99.90;;;;;;5022055;28;20487;-82
2021/10/14 02:39:50;;;;;;;12.33;5.87;;;7.60;99.90;;;;;;5022281;28;20161;-81
2021/10/14 02:42:16;;;;;;;7.57;6.80;;;7.60;99.90;;;;;;5028508;28;20396;-79
2021/10/14 02:44:42;;;;;;;5.33;4.83;;;7.70;99.90;;;;;;5029154;28;20165;-79
2021/10/14 02:47:09;;;;;;;9.53;6.87;;;7.70;99.90;;;;;;5028952;28;20458;-79
2021/10/14 02:49:36;;;;;;;6.10;5.50;;;7.70;99.90;;;;;;5028266;28;20400;-79
2021/10/14 02:52:02;;;;;;;6.43;5.20;;;7.80;99.90;;;;;;5028463;28;20431;-79
2021/10/14 02:54:28;;;;;;;7.77;5.37;;;7.90;99.90;;;;;;5028601;28;20431;-80
2021/10/14 02:56:53;;;;;;;11.67;5.43;;;7.80;99.90;;;;;;5027918;28;20723;-81
2021/10/14 02:59:19;;;;;;;7.03;5.40;;;7.70;99.90;;;;;;5026126;28;20167;-81
2021/10/14 03:01:45;;;;;;;11.50;7.30;;;7.50;99.90;;;;;;5026274;28;20523;-81
2021/10/14 03:04:11;;;;;;;7.40;5.43;;;7.50;99.90;;;;;;5029056;28;20212;-81
2021/10/14 03:06:37;;;;;;;8.60;6.60;;;7.50;99.90;;;;;;5011861;28;20533;-79
2021/10/14 03:09:03;;;;;;;10.13;5.50;;;7.60;99.90;;;;;;5028674;28;20189;-79
2021/10/14 03:11:29;;;;;;;8.63;6.40;;;7.60;99.90;;;;;;5026965;28;20257;-82
2021/10/14 03:13:55;;;;;;;15.80;7.43;;;7.60;99.90;;;;;;5022217;28;20383;-82
2021/10/14 03:16:21;;;;;;;19.03;6.57;;;7.70;99.90;;;;;;5021443;28;20408;-81
2021/10/14 03:18:48;;;;;;;9.77;6.17;;;7.70;99.90;;;;;;5019629;28;20174;-81
2021/10/14 03:21:16;;;;;;;10.90;7.60;;;7.80;99.90;;;;;;5018743;28;20221;-81
2021/10/14 03:23:42;;;;;;;9.63;6.80;;;7.90;99.90;;;;;;5020774;28;20449;-81
2021/10/14 03:26:08;;;;;;;8.93;6.47;;;7.80;99.90;;;;;;5021411;28;20400;-81
2021/10/14 03:28:34;;;;;;;9.80;7.00;;;7.90;99.90;;;;;;5022293;28;20371;-81
2021/10/14 03:31:00;;;;;;;9.80;6.37;;;7.80;99.90;;;;;;5021712;28;20527;-82
2021/10/14 03:33:26;;;;;;;11.53;6.90;;;7.70;99.90;;;;;;5020452;28;20670;-80
2021/10/14 03:35:52;;;;;;;10.07;6.00;;;7.80;99.90;;;;;;5020103;28;20372;-81
2021/10/14 03:38:17;;;;;;;8.97;6.27;;;7.60;99.90;;;;;;5001994;28;20252;-81
2021/10/14 03:40:43;;;;;;;10.10;6.93;;;7.70;99.90;;;;;;5019775;28;20502;-81
2021/10/14 03:43:09;;;;;;;10.27;6.57;;;7.70;99.90;;;;;;5019708;28;20199;-81
2021/10/14 03:45:35;;;;;;;8.10;6.00;;;7.70;99.90;;;;;;5019551;28;20594;-81
2021/10/14 03:48:01;;;;;;;8.30;5.70;;;7.70;99.90;;;;;;5016535;28;20177;-82
2021/10/14 03:50:27;;;;;;;7.27;6.53;;;7.70;99.90;;;;;;5018601;28;20259;-81
2021/10/14 03:52:53;;;;;;;8.93;6.53;;;7.60;99.90;;;;;;5019669;28;20756;-81
2021/10/14 03:55:19;;;;;;;7.27;6.60;;;7.60;99.90;;;;;;5019934;28;20460;-80
2021/10/14 03:57:45;;;;;;;10.10;6.83;;;7.70;99.90;;;;;;5019703;28;20242;-80
2021/10/14 04:00:12;;;;;;;10.90;6.10;;;7.70;99.90;;;;;;5018459;28;20166;-82
2021/10/14 04:02:38;;;;;;;9.57;5.87;;;7.70;99.90;;;;;;5019615;28;20505;-82
2021/10/14 04:05:05;;;;;;;9.50;6.20;;;7.90;99.90;;;;;;5018331;28;20399;-82
2021/10/14 04:07:30;;;;;;;9.70;6.63;;;7.80;99.90;;;;;;5019363;28;20169;-79
2021/10/14 04:09:56;;;;;;;9.13;6.43;;;7.70;99.90;;;;;;5017949;28;20401;-81
2021/10/14 04:12:22;;;;;;;8.20;6.73;;;7.80;99.90;;;;;;5019286;28;20560;-81
2021/10/14 04:14:48;;;;;;;9.77;5.87;;;7.70;99.90;;;;;;5017987;28;20407;-81
2021/10/14 04:17:14;;;;;;;13.90;8.17;;;7.70;99.90;;;;;;5020714;28;20169;-82
2021/10/14 04:19:41;;;;;;;11.20;6.70;;;7.70;99.90;;;;;;5002635;28;20158;-82
2021/10/14 04:22:07;;;;;;;13.50;7.13;;;7.90;99.90;;;;;;5019826;28;20808;-82
2021/10/14 04:24:33;;;;;;;9.10;6.60;;;7.80;99.90;;;;;;5018424;28;20444;-81
2021/10/14 04:26:59;;;;;;;9.03;7.53;;;7.80;99.90;;;;;;5019809;28;20436;-83
2021/10/14 04:29:25;;;;;;;8.63;6.50;;;7.90;99.90;;;;;;5002296;28;20734;-82
2021/10/14 04:31:52;;;;;;;7.37;6.60;;;7.80;99.90;;;;;;5019427;28;20448;-82
2021/10/14 04:34:19;;;;;;;9.43;7.60;;;7.80;99.90;;;;;;5001938;28;20819;-82
2021/10/14 04:36:45;;;;;;;15.73;9.30;;;7.80;99.90;;;;;;5017361;28;20411;-82
2021/10/14 04:39:12;;;;;;;14.33;7.87;;;7.80;99.90;;;;;;5023449;28;20191;-81
2021/10/14 04:41:38;;;;;;;9.80;7.70;;;7.80;99.90;;;;;;5024471;28;20393;-81
2021/10/14 04:44:04;;;;;;;11.43;7.53;;;7.80;99.90;;;;;;5006131;28;20467;-82
2021/10/14 04:46:31;;;;;;;8.10;7.00;;;7.80;99.90;;;;;;5019096;28;20450;-82
2021/10/14 04:48:57;;;;;;;12.83;7.60;;;7.80;99.90;;;;;;5018625;28;20483;-80
2021/10/14 04:51:23;;;;;;;7.93;6.30;;;7.80;99.90;;;;;;5017086;28;20898;-82
2021/10/14 04:53:49;;;;;;;12.33;7.20;;;7.90;99.90;;;;;;5018468;28;20393;-81
2021/10/14 04:56:15;;;;;;;11.80;8.20;;;7.80;99.90;;;;;;5018283;28;20401;-81
2021/10/14 04:58:41;;;;;;;11.67;8.30;;;7.90;99.90;;;;;;5018304;28;20371;-81
2021/10/14 05:01:07;;;;;;;8.47;7.63;;;7.80;99.90;;;;;;5017423;28;20244;-81
2021/10/14 05:03:33;;;;;;;19.50;9.90;;;8.00;99.90;;;;;;5020110;28;20436;-81
2021/10/14 05:05:58;;;;;;;14.30;9.30;;;8.10;99.90;;;;;;5018856;28;20244;-81
2021/10/14 05:08:24;;;;;;;18.47;8.17;;;8.20;99.90;;;;;;5018089;28;20245;-82
2021/10/14 05:10:50;;;;;;;13.10;7.97;;;8.40;99.90;;;;;;5018284;28;20157;-82
2021/10/14 05:13:16;;;;;;;17.70;9.37;;;8.30;99.90;;;;;;5018500;28;20633;-81
2021/10/14 05:15:42;;;;;;;18.27;9.50;;;8.30;99.90;;;;;;5018437;28;20660;-81
2021/10/14 05:18:08;;;;;;;15.90;9.07;;;8.50;99.90;;;;;;5000161;28;20601;-81
2021/10/14 05:20:37;;;;;;;16.77;7.40;;;8.50;99.90;;;;;;5016482;28;20209;-81
2021/10/14 05:23:03;;;;;;;10.13;7.80;;;8.30;99.90;;;;;;5018155;28;20493;-81
2021/10/14 05:25:29;;;;;;;10.63;8.07;;;8.30;99.90;;;;;;5018937;28;20169;-82
2021/10/14 05:27:55;;;;;;;11.67;7.87;;;8.30;99.90;;;;;;5019947;28;20184;-82
2021/10/14 05:30:21;;;;;;;14.87;7.97;;;8.30;99.90;;;;;;5019195;28;20217;-81
2021/10/14 05:32:47;;;;;;;12.60;9.23;;;8.30;99.90;;;;;;5017919;28;20472;-82
2021/10/14 05:35:13;;;;;;;13.67;8.50;;;8.40;99.90;;;;;;5018219;28;20173;-82
2021/10/14 05:37:39;;;;;;;12.43;9.50;;;8.30;99.90;;;;;;5015696;28;20691;-82
2021/10/14 05:40:06;;;;;;;20.50;8.43;;;8.20;99.90;;;;;;5017271;28;20447;-82
2021/10/14 05:42:32;;;;;;;12.73;9.03;;;8.20;99.90;;;;;;5017481;28;20411;-82
2021/10/14 05:44:58;;;;;;;14.50;9.77;;;8.30;99.90;;;;;;5017506;28;20446;-81
2021/10/14 05:47:24;;;;;;;12.47;8.30;;;8.40;99.90;;;;;;5013919;28;20886;-81
2021/10/14 05:49:50;;;;;;;8.90;7.53;;;8.20;99.90;;;;;;5009779;28;20189;-83
2021/10/14 05:52:16;;;;;;;10.40;7.83;;;8.20;99.90;;;;;;5015474;28;20268;-82
2021/10/14 05:54:44;;;;;;;10.50;7.47;;;8.10;99.90;;;;;;5017730;28;20893;-82
2021/10/14 05:57:10;;;;;;;12.23;9.07;;;8.30;99.90;;;;;;5010818;28;20448;-82
2021/10/14 05:59:36;;;;;;;14.00;10.17;;;8.50;99.90;;;;;;5029385;28;20440;-80
2021/10/14 06:02:02;;;;;;;11.27;8.90;;;8.30;99.90;;;;;;5021588;28;20446;-81
2021/10/14 06:04:28;;;;;;;16.80;9.33;;;8.60;99.90;;;;;;5021009;28;20676;-82
2021/10/14 06:06:54;;;;;;;11.43;7.93;;;8.70;99.90;;;;;;5016226;28;20168;-81
2021/10/14 06:09:20;;;;;;;10.47;8.40;;;8.70;99.90;;;;;;5010551;28;20193;-81
2021/10/14 06:11:45;;;;;;;15.07;9.37;;;8.70;99.90;;;;;;5018320;28;20385;-81
2021/10/14 06:14:11;;;;;;;17.47;8.43;;;8.50;99.90;;;;;;5016693;28;20478;-82
2021/10/14 06:16:37;;;;;;;14.67;9.43;;;8.70;99.90;;;;;;5011584;28;20621;-82
2021/10/14 06:19:03;;;;;;;8.87;7.53;;;8.60;99.90;;;;;;5018513;28;20446;-82
2021/10/14 06:21:29;;;;;;;20.10;10.70;;;8.70;99.90;;;;;;5021508;28;20287;-82
2021/10/14 06:23:55;;;;;;;19.67;11.37;;;8.70;99.90;;;;;;5011726;28;20475;-82
2021/10/14 06:26:21;;;;;;;13.83;8.63;;;8.80;99.90;;;;;;5018808;28;20153;-82
2021/10/14 06:28:46;;;;;;;15.83;9.60;;;8.80;99.90;;;;;;5016523;28;20185;-82
2021/10/14 06:31:12;;;;;;;16.23;10.57;;;8.90;99.90;;;;;;5021543;28;20191;-82
2021/10/14 06:33:38;;;;;;;13.40;7.77;;;8.70;99.90;;;;;;5018484;28;20303;-82
2021/10/14 06:36:04;;;;;;;15.70;10.03;;;8.90;99.90;;;;;;5026217;28;20451;-79
2021/10/14 06:38:31;;;;;;;11.63;9.10;;;8.90;99.90;;;;;;5035034;28;20253;-82
2021/10/14 06:40:57;;;;;;;16.33;9.33;;;8.90;99.90;;;;;;5029229;28;20197;-82
2021/10/14 06:43:23;;;;;;;16.30;10.40;;;9.00;99.90;;;;;;5035105;28;20469;-82
2021/10/14 06:45:50;;;;;;;14.43;8.43;;;8.90;99.90;;;;;;5026162;28;20416;-81
2021/10/14 06:48:16;;;;;;;11.87;7.83;;;8.60;99.90;;;;;;5029176;28;20443;-81
2021/10/14 06:50:42;;;;;;;14.43;7.47;;;8.50;99.90;;;;;;5024407;28;20420;-81
2021/10/14 06:53:10;;;;;;;11.50;8.10;;;8.30;99.90;;;;;;5014473;28;20180;-80
2021/10/14 06:55:37;;;;;;;15.57;10.10;;;8.40;99.90;;;;;;5020924;28;20192;-80
2021/10/14 06:58:03;;;;;;;13.43;8.50;;;8.50;99.90;;;;;;5018756;28;20415;-79
2021/10/14 07:00:29;;;;;;;9.53;8.17;;;8.60;99.90;;;;;;5017256;28;20438;-80
2021/10/14 07:02:57;;;;;;;14.70;9.27;;;8.50;99.90;;;;;;5018815;28;20528;-81
2021/10/14 07:05:23;;;;;;;12.97;10.67;;;8.50;99.90;;;;;;5036600;28;20188;-80
2021/10/14 07:07:48;;;;;;;15.13;9.47;;;8.50;99.90;;;;;;5014362;28;20439;-81
2021/10/14 07:10:15;;;;;;;10.80;7.87;;;8.70;99.90;;;;;;5021734;28;20200;-78
2021/10/14 07:12:42;;;;;;;15.90;8.93;;;8.70;99.90;;;;;;5020603;28;20192;-82
2021/10/14 07:15:09;;;;;;;13.17;8.27;;;8.70;99.90;;;;;;5015890;28;20448;-81
2021/10/14 07:17:36;;;;;;;16.60;8.90;;;8.60;99.90;;;;;;5014175;28;20670;-81
2021/10/14 07:20:04;;;;;;;14.17;9.53;;;8.60;99.90;;;;;;5018286;28;20865;-78
2021/10/14 07:22:30;;;;;;;11.63;8.20;;;8.70;99.90;;;;;;5025033;28;20957;-80
2021/10/14 07:25:16;;;;;;;19.20;9.50;;;8.80;99.90;;;;;;5002730;28;20437;-82
2021/10/14 07:27:41;;;;;;;12.57;10.43;;;8.70;99.90;;;;;;5002455;28;20473;-79
2021/10/14 07:30:08;;;;;;;11.63;8.97;;;8.70;99.90;;;;;;4996701;28;20208;-80
2021/10/14 07:32:36;;;;;;;12.40;9.57;;;8.60;99.90;;;;;;4974218;28;20226;-77
2021/10/14 07:35:04;;;;;;;13.33;8.23;;;8.70;99.90;;;;;;5000104;28;20449;-81
2021/10/14 07:37:30;;;;;;;11.80;9.93;;;8.80;99.90;;;;;;4970534;28;20479;-79
2021/10/14 07:39:56;;;;;;;11.80;8.43;;;8.90;99.90;;;;;;4995451;28;20444;-79
2021/10/14 07:42:22;;;;;;;13.47;9.50;;;9.10;99.90;;;;;;4974908;28;20566;-81
2021/10/14 07:44:48;;;;;;;15.73;7.80;;;8.90;99.90;;;;;;4993401;28;20228;-80
2021/10/14 07:47:14;;;;;;;15.43;9.80;;;8.90;99.90;;;;;;4993282;28;20468;-81
2021/10/14 07:49:40;;;;;;;14.93;10.67;;;9.10;99.90;;;;;;4971948;28;20961;-82
2021/10/14 07:52:06;;;;;;;13.67;9.77;;;9.30;99.90;;;;;;4993528;28;20181;-82
2021/10/14 07:54:32;;;;;;;14.07;9.53;;;9.20;99.90;;;;;;4967509;28;20194;-82
2021/10/14 07:56:58;;;;;;;12.30;8.60;;;9.00;99.90;;;;;;4985910;28;20466;-81
2021/10/14 07:59:23;;;;;;;11.23;9.30;;;9.10;99.90;;;;;;4985106;28;20292;-81
2021/10/14 08:01:49;;;;;;;14.33;9.20;;;9.20;99.90;;;;;;4987944;28;20201;-80
2021/10/14 08:04:15;;;;;;;12.07;8.60;;;9.30;99.90;;;;;;4990589;28;20639;-81
2021/10/14 08:06:41;;;;;;;15.60;8.77;;;9.30;99.90;;;;;;4994072;28;20197;-80
2021/10/14 08:09:07;;;;;;;13.73;8.47;;;9.30;99.90;;;;;;4994448;28;20190;-80
2021/10/14 08:11:33;;;;;;;15.27;10.23;;;9.30;99.90;;;;;;4992505;28;20735;-81
2021/10/14 08:13:59;;;;;;;10.87;7.87;;;9.30;99.90;;;;;;4988875;28;20797;-82
2021/10/14 08:16:26;;;;;;;15.10;9.70;;;9.20;99.90;;;;;;4989578;28;20193;-81
2021/10/14 08:18:51;;;;;;;13.33;9.40;;;9.10;99.90;;;;;;4996366;28;20901;-79
2021/10/14 08:21:21;;;;;;;17.40;10.10;;;9.20;99.90;;;;;;4996412;28;21326;-80
2021/10/14 08:23:46;;;;;;;13.10;9.17;;;8.90;99.90;;;;;;4984786;28;20500;-79
2021/10/14 08:26:12;;;;;;;16.37;10.53;;;9.20;99.90;;;;;;4987154;28;20469;-79
2021/10/14 08:28:38;;;;;;;15.60;8.83;;;9.30;99.90;;;;;;4999239;28;20591;-79
2021/10/14 08:31:04;;;;;;;11.33;8.43;;;9.30;99.90;;;;;;4990033;28;20194;-79
2021/10/14 08:33:30;;;;;;;10.77;9.13;;;9.30;99.90;;;;;;5007822;28;20286;-79
2021/10/14 08:35:58;;;;;;;12.23;8.00;;;9.20;99.90;;;;;;5018958;28;20535;-78
2021/10/14 08:38:24;;;;;;;10.80;8.57;;;9.50;99.90;;;;;;5014006;28;20444;-79
2021/10/14 08:40:52;;;;;;;15.33;9.10;;;9.30;99.90;;;;;;5014476;28;20786;-79
2021/10/14 08:43:19;;;;;;;11.30;7.43;;;9.20;99.90;;;;;;5015364;28;20216;-80
2021/10/14 08:45:47;;;;;;;10.10;7.90;;;9.20;99.90;;;;;;5018483;28;20464;-79
2021/10/14 08:48:14;;;;;;;13.50;9.30;;;9.40;99.90;;;;;;5016006;28;20494;-79
2021/10/14 08:50:46;;;;;;;7.60;6.80;;;9.60;99.90;;;;;;5017089;28;20597;-81
2021/10/14 08:53:12;;;;;;;9.93;6.77;;;9.60;99.90;;;;;;5007225;28;20440;-82
2021/10/14 08:55:40;;;;;;;14.10;8.50;;;9.60;99.90;;;;;;5008773;28;20550;-81
2021/10/14 08:58:08;;;;;;;9.57;8.33;;;9.70;99.90;;;;;;5010487;28;20459;-81
2021/10/14 09:00:36;;;;;;;12.90;9.20;;;9.80;99.90;;;;;;5000989;28;20986;-81
2021/10/14 09:03:26;;;;;;;9.07;7.80;;;9.80;99.90;;;;;;5004422;28;20557;-81
2021/10/14 09:05:53;;;;;;;7.70;7.00;;;9.80;99.90;;;;;;5007438;28;20437;-80
2021/10/14 09:08:42;;;;;;;21.03;14.33;;;9.90;99.90;;;;;;5003618;28;20482;-81
2021/10/14 09:11:18;;;;;;;9.50;7.27;;;9.90;99.90;;;;;;5012193;28;20907;-81
2021/10/14 09:13:48;;;;;;;10.53;7.50;;;9.70;99.90;;;;;;5005781;28;20564;-80
2021/10/14 09:16:25;;;;;;;10.33;6.87;;;9.80;99.90;;;;;;5010845;28;20444;-82
2021/10/14 09:18:52;;;;;;;12.10;8.70;;;9.90;99.90;;;;;;5010381;28;20531;-81
2021/10/14 09:21:28;;;;;;;8.50;6.93;;;9.70;99.90;;;;;;5025553;28;20471;-80
2021/10/14 09:23:56;;;;;;;10.93;6.60;;;9.70;99.90;;;;;;5009109;28;20467;-80
2021/10/14 09:26:31;;;;;;;11.07;7.47;;;9.60;99.90;;;;;;5006627;28;20622;-78
2021/10/14 09:29:13;;;;;;;9.23;6.57;;;9.60;99.90;;;;;;5022991;28;20431;-83
2021/10/14 09:31:49;;;;;;;10.50;6.70;;;9.70;99.90;;;;;;5025000;28;20499;-82
2021/10/14 09:34:38;;;;;;;18.17;6.70;;;9.80;99.90;;;;;;5024029;28;20445;-81
2021/10/14 09:37:25;;;;;;;11.27;7.97;;;10.00;99.90;;;;;;5027255;28;20440;-80
2021/10/14 09:40:01;;;;;;;20.73;8.70;;;10.30;99.90;;;;;;5027265;28;20503;-80
2021/10/14 09:42:40;;;;;;;7.83;6.73;;;10.30;99.90;;;;;;5043068;28;20441;-82
2021/10/14 09:45:18;;;;;;;9.10;6.90;;;10.40;99.90;;;;;;5027613;28;20517;-81
2021/10/14 09:47:48;;;;;;;7.73;6.97;;;10.50;99.90;;;;;;5029548;28;20416;-82
2021/10/14 09:50:20;;;;;;;10.80;6.67;;;10.50;99.90;;;;;;5030859;28;20491;-80
2021/10/14 09:52:46;;;;;;;8.93;6.20;;;10.50;99.90;;;;;;5042342;28;20515;-82
2021/10/14 09:55:12;;;;;;;7.53;6.50;;;10.60;99.90;;;;;;5027559;28;20440;-81
2021/10/14 09:57:59;;;;;;;9.17;7.60;;;10.50;99.90;;;;;;5039205;28;20463;-81
2021/10/14 10:00:27;;;;;;;10.90;7.57;;;10.30;99.90;;;;;;4989032;28;20464;-80
2021/10/14 10:02:55;;;;;;;8.80;7.90;;;10.40;99.90;;;;;;4991272;28;20469;-83
2021/10/14 10:05:22;;;;;;;11.03;6.80;;;10.40;99.90;;;;;;4987802;28;21223;-79
2021/10/14 10:07:50;;;;;;;11.05;7.78;;;10.50;99.90;;;;;;4983517;28;20425;-81
2021/10/14 10:10:19;;;;;;;11.63;7.00;;;10.50;99.90;;;;;;4984761;28;20222;-81
2021/10/14 10:12:47;;;;;;;12.97;7.53;;;10.50;99.90;;;;;;4982293;28;20426;-82
2021/10/14 10:15:13;;;;;;;9.87;7.43;;;10.60;99.90;;;;;;4974688;28;20445;-81
2021/10/14 10:17:41;;;;;;;13.97;8.20;;;10.50;99.90;;;;;;4981255;28;20609;-80
2021/10/14 10:20:10;;;;;;;15.63;9.00;;;10.50;99.90;;;;;;4962360;28;20226;-80
2021/10/14 10:22:53;;;;;;;10.80;7.97;;;10.60;99.90;;;;;;4983882;28;20458;-81
2021/10/14 10:25:36;;;;;;;8.67;6.57;;;10.60;99.90;;;;;;4966381;28;20450;-80
2021/10/14 10:28:07;;;;;;;11.00;7.50;;;10.60;99.90;;;;;;4980738;28;20433;-79
2021/10/14 10:30:39;;;;;;;10.50;7.27;;;10.50;99.90;;;;;;4970722;28;20416;-81
2021/10/14 10:33:07;;;;;;;12.90;7.20;;;10.60;99.90;;;;;;5004485;28;20519;-80
2021/10/14 10:35:49;;;;;;;10.70;8.93;;;10.70;99.90;;;;;;5004917;28;20428;-82
2021/10/14 10:38:21;;;;;;;15.90;7.90;;;10.70;99.90;;;;;;5003976;28;20427;-80
2021/10/14 10:40:51;;;;;;;12.00;7.80;;;10.60;99.90;;;;;;4988645;28;20429;-81
2021/10/14 10:43:21;;;;;;;14.67;8.23;;;10.80;99.90;;;;;;4996576;28;20460;-80
2021/10/14 10:45:52;;;;;;;13.73;7.93;;;10.60;99.90;;;;;;4998053;28;20440;-82
2021/10/14 10:48:39;;;;;;;15.73;8.63;;;10.70;99.90;;;;;;4988832;28;20436;-82
2021/10/14 10:51:07;;;;;;;11.20;8.03;;;10.70;99.90;;;;;;4991678;28;20437;-82
2021/10/14 10:53:42;;;;;;;9.63;7.90;;;10.80;99.90;;;;;;4990110;28;20451;-81
2021/10/14 10:56:27;;;;;;;8.77;7.53;;;10.80;99.90;;;;;;4972567;28;20561;-81
2021/10/14 10:58:54;;;;;;;15.73;8.93;;;10.80;99.90;;;;;;4990690;28;21082;-81
2021/10/14 11:01:20;;;;;;;10.47;8.20;;;10.80;99.90;;;;;;4992701;28;20445;-80
2021/10/14 11:04:03;;;;;;;11.27;8.53;;;10.80;99.90;;;;;;4991372;28;20766;-82
2021/10/14 11:06:33;;;;;;;12.83;7.60;;;10.70;99.90;;;;;;4993284;28;20447;-81
2021/10/14 11:09:05;;;;;;;9.10;6.57;;;10.60;99.90;;;;;;4991147;28;20441;-81
2021/10/14 11:11:31;;;;;;;8.77;6.53;;;10.70;99.90;;;;;;4995873;28;20489;-81
2021/10/14 11:13:58;;;;;;;14.23;7.83;;;10.70;99.90;;;;;;4986783;28;20444;-82
2021/10/14 11:16:27;;;;;;;8.30;7.40;;;10.80;99.90;;;;;;5021519;28;20443;-83
2021/10/14 11:18:56;;;;;;;12.33;7.60;;;10.90;99.90;;;;;;5017543;28;20447;-81
2021/10/14 11:21:24;;;;;;;8.47;6.83;;;10.90;99.90;;;;;;5013773;28;20977;-82
2021/10/14 11:23:53;;;;;;;7.73;6.63;;;10.90;99.90;;;;;;5012022;28;20543;-82
2021/10/14 11:26:27;;;;;;;15.27;8.40;;;10.60;99.90;;;;;;4986455;28;20436;-81
2021/10/14 11:29:01;;;;;;;12.10;7.50;;;10.70;99.90;;;;;;5014445;28;20520;-81
2021/10/14 11:31:36;;;;;;;8.57;7.73;;;10.80;99.90;;;;;;4997166;28;20431;-82
2021/10/14 11:34:06;;;;;;;13.13;7.53;;;10.50;99.90;;;;;;5019855;28;20478;-83
2021/10/14 11:36:32;;;;;;;12.07;7.67;;;10.60;99.90;;;;;;5049322;28;20383;-82
2021/10/14 11:39:02;;;;;;;7.33;6.60;;;10.80;99.90;;;;;;5024842;28;20475;-82
2021/10/14 11:41:28;;;;;;;10.10;7.47;;;10.40;99.90;;;;;;5034016;28;20515;-80
2021/10/14 11:43:57;;;;;;;14.03;7.80;;;10.10;99.90;;;;;;5015668;28;20452;-83
2021/10/14 11:46:27;;;;;;;12.70;8.40;;;10.10;99.90;;;;;;5014605;28;20448;-84
2021/10/14 11:48:59;;;;;;;7.57;5.80;;;10.20;99.90;;;;;;5026816;28;20456;-83
2021/10/14 11:51:27;;;;;;;12.10;7.50;;;10.30;99.90;;;;;;5029952;28;20417;-80
2021/10/14 11:53:58;;;;;;;11.27;7.47;;;10.40;99.90;;;;;;5027836;28;20439;-82
2021/10/14 11:56:24;;;;;;;17.20;7.40;;;10.20;99.90;;;;;;5036930;28;20440;-82
2021/10/14 11:58:50;;;;;;;12.27;6.93;;;10.50;99.90;;;;;;5031271;28;20434;-81
2021/10/14 12:01:20;;;;;;;6.07;5.47;;;10.70;99.90;;;;;;5028847;28;20455;-83
2021/10/14 12:03:47;;;;;;;9.63;7.17;;;10.60;99.90;;;;;;5028247;28;20466;-83
2021/10/14 12:06:15;;;;;;;10.70;6.67;;;10.70;99.90;;;;;;5030092;28;20563;-83
2021/10/14 12:08:43;;;;;;;7.53;6.67;;;10.60;99.90;;;;;;5025397;28;20446;-80
2021/10/14 12:11:21;;;;;;;11.30;8.03;;;10.70;99.90;;;;;;5027715;28;20515;-82
2021/10/14 12:14:02;;;;;;;9.77;7.83;;;10.80;99.90;;;;;;5016549;28;20439;-83
2021/10/14 12:16:33;;;;;;;8.03;6.60;;;10.70;99.90;;;;;;5015160;28;20511;-78
2021/10/14 12:19:18;;;;;;;17.17;8.90;;;10.80;99.90;;;;;;5013653;28;20440;-83
2021/10/14 12:21:46;;;;;;;9.33;6.93;;;10.70;99.90;;;;;;5025282;28;20456;-82
2021/10/14 12:24:20;;;;;;;15.00;7.00;;;10.70;99.90;;;;;;5022732;28;20468;-82
2021/10/14 12:26:48;;;;;;;14.97;6.77;;;10.60;99.90;;;;;;5016667;28;20429;-82
2021/10/14 12:29:23;;;;;;;8.43;7.17;;;10.60;99.90;;;;;;5015434;28;20432;-81
2021/10/14 12:32:01;;;;;;;11.73;7.93;;;10.60;99.90;;;;;;5014218;28;20458;-83
2021/10/14 12:34:37;;;;;;;11.67;7.47;;;10.60;99.90;;;;;;5015848;28;20409;-83
2021/10/14 12:37:07;;;;;;;12.90;7.27;;;10.60;99.90;;;;;;5013012;28;20436;-83
2021/10/14 12:39:33;;;;;;;7.90;6.50;;;10.50;99.90;;;;;;5017661;28;20511;-83
2021/10/14 12:41:59;;;;;;;11.50;7.70;;;10.50;99.90;;;;;;5015818;28;20431;-81
2021/10/14 12:44:35;;;;;;;16.27;8.13;;;10.50;99.90;;;;;;5015727;28;20464;-82
2021/10/14 12:47:05;;;;;;;11.50;7.87;;;10.40;99.90;;;;;;5019691;28;20232;-83
2021/10/14 12:49:40;;;;;;;12.80;7.13;;;10.40;99.90;;;;;;5025511;28;20479;-83
2021/10/14 12:52:19;;;;;;;10.87;7.03;;;10.30;99.90;;;;;;5015482;28;20444;-83